sensor_id;sensor_type;location;lat;lon;timestamp;P1;durP1;ratioP1;P2;durP2;ratioP2
57433;SDS011;43277;52.672;6.984;2023-02-12T00:00:20;28.13;;;17.90;;
57433;SDS011;43277;52.672;6.984;2023-02-12T00:02:46;28.90;;;18.17;;
57433;SDS011;43277;52.672;6.984;2023-02-12T00:05:12;28.40;;;17.95;;
57433;SDS011;43277;52.672;6.984;2023-02-12T00:07:40;30.20;;;18.38;;
57433;SDS011;43277;52.672;6.984;2023-02-12T00:10:06;27.77;;;18.23;;
57433;SDS011;43277;52.672;6.984;2023-02-12T00:12:33;29.55;;;18.92;;
57433;SDS011;43277;52.672;6.984;2023-02-12T00:14:59;29.40;;;18.48;;
57433;SDS011;43277;52.672;6.984;2023-02-12T00:17:24;31.23;;;19.48;;
57433;SDS011;43277;52.672;6.984;2023-02-12T00:19:50;28.85;;;18.63;;
57433;SDS011;43277;52.672;6.984;2023-02-12T00:22:15;29.83;;;18.73;;
57433;SDS011;43277;52.672;6.984;2023-02-12T00:24:41;27.80;;;18.55;;
57433;SDS011;43277;52.672;6.984;2023-02-12T00:27:06;35.78;;;21.00;;
57433;SDS011;43277;52.672;6.984;2023-02-12T00:29:32;33.58;;;20.70;;
57433;SDS011;43277;52.672;6.984;2023-02-12T00:31:58;33.53;;;21.25;;
57433;SDS011;43277;52.672;6.984;2023-02-12T00:34:23;34.50;;;20.30;;
57433;SDS011;43277;52.672;6.984;2023-02-12T00:36:49;32.20;;;21.70;;
57433;SDS011;43277;52.672;6.984;2023-02-12T00:39:15;35.20;;;21.45;;
57433;SDS011;43277;52.672;6.984;2023-02-12T00:41:40;32.17;;;20.13;;
57433;SDS011;43277;52.672;6.984;2023-02-12T00:44:06;28.27;;;19.50;;
57433;SDS011;43277;52.672;6.984;2023-02-12T00:46:31;33.58;;;20.50;;
57433;SDS011;43277;52.672;6.984;2023-02-12T00:48:57;33.80;;;22.08;;
57433;SDS011;43277;52.672;6.984;2023-02-12T00:51:22;30.40;;;20.27;;
57433;SDS011;43277;52.672;6.984;2023-02-12T00:53:48;31.60;;;18.83;;
57433;SDS011;43277;52.672;6.984;2023-02-12T00:56:14;36.60;;;20.02;;
57433;SDS011;43277;52.672;6.984;2023-02-12T00:58:39;36.45;;;19.88;;
57433;SDS011;43277;52.672;6.984;2023-02-12T01:01:05;30.48;;;19.70;;
57433;SDS011;43277;52.672;6.984;2023-02-12T01:03:31;34.45;;;20.13;;
57433;SDS011;43277;52.672;6.984;2023-02-12T01:05:56;32.72;;;19.30;;
57433;SDS011;43277;52.672;6.984;2023-02-12T01:08:22;33.30;;;20.45;;
57433;SDS011;43277;52.672;6.984;2023-02-12T01:10:58;30.10;;;19.35;;
57433;SDS011;43277;52.672;6.984;2023-02-12T01:13:26;33.47;;;20.40;;
57433;SDS011;43277;52.672;6.984;2023-02-12T01:16:02;38.80;;;20.75;;
57433;SDS011;43277;52.672;6.984;2023-02-12T01:18:32;29.38;;;20.20;;
57433;SDS011;43277;52.672;6.984;2023-02-12T01:20:59;34.13;;;20.23;;
57433;SDS011;43277;52.672;6.984;2023-02-12T01:23:25;33.88;;;20.48;;
57433;SDS011;43277;52.672;6.984;2023-02-12T01:25:51;30.25;;;19.90;;
57433;SDS011;43277;52.672;6.984;2023-02-12T01:28:16;37.80;;;21.90;;
57433;SDS011;43277;52.672;6.984;2023-02-12T01:30:42;34.22;;;20.95;;
57433;SDS011;43277;52.672;6.984;2023-02-12T01:33:08;33.97;;;20.20;;
57433;SDS011;43277;52.672;6.984;2023-02-12T01:35:33;33.83;;;20.17;;
57433;SDS011;43277;52.672;6.984;2023-02-12T01:38:01;29.98;;;20.02;;
57433;SDS011;43277;52.672;6.984;2023-02-12T01:40:27;34.20;;;21.77;;
57433;SDS011;43277;52.672;6.984;2023-02-12T01:42:52;33.65;;;20.42;;
57433;SDS011;43277;52.672;6.984;2023-02-12T01:47:47;36.58;;;21.42;;
57433;SDS011;43277;52.672;6.984;2023-02-12T01:50:14;31.48;;;21.60;;
57433;SDS011;43277;52.672;6.984;2023-02-12T01:52:45;37.92;;;20.67;;
57433;SDS011;43277;52.672;6.984;2023-02-12T01:55:15;33.22;;;20.40;;
57433;SDS011;43277;52.672;6.984;2023-02-12T01:57:43;35.10;;;22.95;;
57433;SDS011;43277;52.672;6.984;2023-02-12T02:00:15;33.03;;;20.88;;
57433;SDS011;43277;52.672;6.984;2023-02-12T02:02:45;39.13;;;23.85;;
57433;SDS011;43277;52.672;6.984;2023-02-12T02:05:17;36.25;;;23.27;;
57433;SDS011;43277;52.672;6.984;2023-02-12T02:08:06;37.78;;;22.80;;
57433;SDS011;43277;52.672;6.984;2023-02-12T02:10:32;38.55;;;23.25;;
57433;SDS011;43277;52.672;6.984;2023-02-12T02:12:58;36.90;;;22.83;;
57433;SDS011;43277;52.672;6.984;2023-02-12T02:15:44;32.78;;;22.85;;
57433;SDS011;43277;52.672;6.984;2023-02-12T02:21:02;44.83;;;25.88;;
57433;SDS011;43277;52.672;6.984;2023-02-12T02:31:55;42.15;;;27.63;;
57433;SDS011;43277;52.672;6.984;2023-02-12T02:34:28;44.78;;;27.08;;
57433;SDS011;43277;52.672;6.984;2023-02-12T02:39:35;44.03;;;28.17;;
57433;SDS011;43277;52.672;6.984;2023-02-12T02:42:16;43.15;;;30.05;;
57433;SDS011;43277;52.672;6.984;2023-02-12T02:44:49;50.33;;;30.65;;
57433;SDS011;43277;52.672;6.984;2023-02-12T02:47:19;48.28;;;30.27;;
57433;SDS011;43277;52.672;6.984;2023-02-12T02:49:52;46.17;;;29.92;;
57433;SDS011;43277;52.672;6.984;2023-02-12T02:52:45;45.70;;;30.90;;
57433;SDS011;43277;52.672;6.984;2023-02-12T02:55:14;47.65;;;31.15;;
57433;SDS011;43277;52.672;6.984;2023-02-12T02:57:53;50.65;;;30.13;;
57433;SDS011;43277;52.672;6.984;2023-02-12T03:03:07;49.08;;;32.20;;
57433;SDS011;43277;52.672;6.984;2023-02-12T03:05:40;52.97;;;32.78;;
57433;SDS011;43277;52.672;6.984;2023-02-12T03:08:11;57.13;;;34.92;;
57433;SDS011;43277;52.672;6.984;2023-02-12T03:10:46;54.75;;;35.28;;
57433;SDS011;43277;52.672;6.984;2023-02-12T03:13:20;48.67;;;33.03;;
57433;SDS011;43277;52.672;6.984;2023-02-12T03:16:04;52.42;;;33.42;;
57433;SDS011;43277;52.672;6.984;2023-02-12T03:18:42;49.65;;;33.58;;
57433;SDS011;43277;52.672;6.984;2023-02-12T03:21:14;54.10;;;34.15;;
57433;SDS011;43277;52.672;6.984;2023-02-12T03:23:50;49.25;;;33.20;;
57433;SDS011;43277;52.672;6.984;2023-02-12T03:26:23;52.47;;;35.78;;
57433;SDS011;43277;52.672;6.984;2023-02-12T03:28:53;55.20;;;34.10;;
57433;SDS011;43277;52.672;6.984;2023-02-12T03:36:58;53.47;;;35.78;;
57433;SDS011;43277;52.672;6.984;2023-02-12T03:39:34;58.83;;;35.83;;
57433;SDS011;43277;52.672;6.984;2023-02-12T03:45:40;56.00;;;36.78;;
57433;SDS011;43277;52.672;6.984;2023-02-12T03:48:24;57.45;;;36.90;;
57433;SDS011;43277;52.672;6.984;2023-02-12T03:53:29;60.13;;;38.50;;
57433;SDS011;43277;52.672;6.984;2023-02-12T03:56:00;59.28;;;37.45;;
57433;SDS011;43277;52.672;6.984;2023-02-12T03:58:29;54.88;;;37.45;;
57433;SDS011;43277;52.672;6.984;2023-02-12T04:00:58;58.85;;;38.15;;
57433;SDS011;43277;52.672;6.984;2023-02-12T04:03:25;59.78;;;38.80;;
57433;SDS011;43277;52.672;6.984;2023-02-12T04:05:51;62.53;;;38.72;;
57433;SDS011;43277;52.672;6.984;2023-02-12T04:08:16;55.50;;;37.58;;
57433;SDS011;43277;52.672;6.984;2023-02-12T04:16:24;64.15;;;40.53;;
57433;SDS011;43277;52.672;6.984;2023-02-12T04:18:58;67.65;;;41.47;;
57433;SDS011;43277;52.672;6.984;2023-02-12T04:21:51;65.60;;;41.22;;
57433;SDS011;43277;52.672;6.984;2023-02-12T04:27:13;71.30;;;41.28;;
57433;SDS011;43277;52.672;6.984;2023-02-12T04:30:06;63.22;;;40.70;;
57433;SDS011;43277;52.672;6.984;2023-02-12T04:32:47;66.50;;;40.08;;
57433;SDS011;43277;52.672;6.984;2023-02-12T04:37:56;63.97;;;38.80;;
57433;SDS011;43277;52.672;6.984;2023-02-12T04:40:26;65.00;;;40.70;;
57433;SDS011;43277;52.672;6.984;2023-02-12T04:42:52;66.43;;;41.15;;
57433;SDS011;43277;52.672;6.984;2023-02-12T04:45:25;66.90;;;40.17;;
57433;SDS011;43277;52.672;6.984;2023-02-12T04:47:53;69.60;;;40.45;;
57433;SDS011;43277;52.672;6.984;2023-02-12T04:50:19;76.60;;;43.70;;
57433;SDS011;43277;52.672;6.984;2023-02-12T04:52:44;73.78;;;41.92;;
57433;SDS011;43277;52.672;6.984;2023-02-12T04:55:11;70.00;;;41.35;;
57433;SDS011;43277;52.672;6.984;2023-02-12T04:57:36;72.25;;;41.67;;
57433;SDS011;43277;52.672;6.984;2023-02-12T05:00:03;66.07;;;40.97;;
57433;SDS011;43277;52.672;6.984;2023-02-12T05:02:30;73.57;;;41.25;;
57433;SDS011;43277;52.672;6.984;2023-02-12T05:04:57;81.50;;;44.17;;
57433;SDS011;43277;52.672;6.984;2023-02-12T05:07:23;73.88;;;41.20;;
57433;SDS011;43277;52.672;6.984;2023-02-12T05:09:48;67.05;;;40.35;;
57433;SDS011;43277;52.672;6.984;2023-02-12T05:12:14;72.45;;;41.53;;
57433;SDS011;43277;52.672;6.984;2023-02-12T05:14:40;72.18;;;41.53;;
57433;SDS011;43277;52.672;6.984;2023-02-12T05:17:05;70.78;;;39.58;;
57433;SDS011;43277;52.672;6.984;2023-02-12T05:19:31;79.78;;;42.72;;
57433;SDS011;43277;52.672;6.984;2023-02-12T05:21:56;73.90;;;41.10;;
57433;SDS011;43277;52.672;6.984;2023-02-12T05:24:22;73.50;;;39.95;;
57433;SDS011;43277;52.672;6.984;2023-02-12T05:26:48;79.60;;;41.83;;
57433;SDS011;43277;52.672;6.984;2023-02-12T05:29:14;87.50;;;44.10;;
57433;SDS011;43277;52.672;6.984;2023-02-12T05:31:39;81.47;;;41.60;;
57433;SDS011;43277;52.672;6.984;2023-02-12T05:34:05;87.15;;;44.13;;
57433;SDS011;43277;52.672;6.984;2023-02-12T05:36:34;74.95;;;40.05;;
57433;SDS011;43277;52.672;6.984;2023-02-12T05:38:59;96.15;;;44.67;;
57433;SDS011;43277;52.672;6.984;2023-02-12T05:41:25;103.72;;;46.45;;
57433;SDS011;43277;52.672;6.984;2023-02-12T05:43:51;85.65;;;44.42;;
57433;SDS011;43277;52.672;6.984;2023-02-12T05:46:17;97.70;;;46.53;;
57433;SDS011;43277;52.672;6.984;2023-02-12T05:48:44;113.95;;;47.95;;
57433;SDS011;43277;52.672;6.984;2023-02-12T05:51:11;126.88;;;52.92;;
57433;SDS011;43277;52.672;6.984;2023-02-12T05:53:39;142.25;;;57.60;;
57433;SDS011;43277;52.672;6.984;2023-02-12T05:56:09;111.35;;;50.38;;
57433;SDS011;43277;52.672;6.984;2023-02-12T05:58:37;119.50;;;53.50;;
57433;SDS011;43277;52.672;6.984;2023-02-12T06:01:12;117.60;;;53.03;;
57433;SDS011;43277;52.672;6.984;2023-02-12T06:06:11;147.82;;;56.70;;
57433;SDS011;43277;52.672;6.984;2023-02-12T06:08:37;170.07;;;57.28;;
57433;SDS011;43277;52.672;6.984;2023-02-12T06:11:05;139.13;;;52.88;;
57433;SDS011;43277;52.672;6.984;2023-02-12T06:13:33;158.60;;;55.47;;
57433;SDS011;43277;52.672;6.984;2023-02-12T06:15:59;122.82;;;51.42;;
57433;SDS011;43277;52.672;6.984;2023-02-12T06:18:25;150.63;;;52.72;;
57433;SDS011;43277;52.672;6.984;2023-02-12T06:20:52;182.52;;;58.28;;
57433;SDS011;43277;52.672;6.984;2023-02-12T06:23:19;151.15;;;55.75;;
57433;SDS011;43277;52.672;6.984;2023-02-12T06:25:46;139.23;;;52.22;;
57433;SDS011;43277;52.672;6.984;2023-02-12T06:28:12;148.48;;;51.55;;
57433;SDS011;43277;52.672;6.984;2023-02-12T06:30:37;169.82;;;55.67;;
57433;SDS011;43277;52.672;6.984;2023-02-12T06:33:03;174.63;;;55.17;;
57433;SDS011;43277;52.672;6.984;2023-02-12T06:35:29;154.07;;;54.40;;
57433;SDS011;43277;52.672;6.984;2023-02-12T06:37:54;181.32;;;57.03;;
57433;SDS011;43277;52.672;6.984;2023-02-12T06:40:20;187.32;;;58.00;;
57433;SDS011;43277;52.672;6.984;2023-02-12T06:42:46;142.27;;;52.97;;
57433;SDS011;43277;52.672;6.984;2023-02-12T06:45:11;177.85;;;56.10;;
57433;SDS011;43277;52.672;6.984;2023-02-12T06:47:37;196.35;;;61.10;;
57433;SDS011;43277;52.672;6.984;2023-02-12T06:50:03;204.45;;;66.60;;
57433;SDS011;43277;52.672;6.984;2023-02-12T06:52:29;211.60;;;65.78;;
57433;SDS011;43277;52.672;6.984;2023-02-12T06:54:54;191.93;;;65.03;;
57433;SDS011;43277;52.672;6.984;2023-02-12T06:57:20;219.85;;;72.50;;
57433;SDS011;43277;52.672;6.984;2023-02-12T06:59:45;356.17;;;92.70;;
57433;SDS011;43277;52.672;6.984;2023-02-12T07:02:11;202.27;;;73.10;;
57433;SDS011;43277;52.672;6.984;2023-02-12T07:04:37;212.00;;;71.15;;
57433;SDS011;43277;52.672;6.984;2023-02-12T07:07:03;309.17;;;90.50;;
57433;SDS011;43277;52.672;6.984;2023-02-12T07:09:30;258.65;;;83.60;;
57433;SDS011;43277;52.672;6.984;2023-02-12T07:11:58;212.90;;;77.07;;
57433;SDS011;43277;52.672;6.984;2023-02-12T07:14:24;209.70;;;76.45;;
57433;SDS011;43277;52.672;6.984;2023-02-12T07:16:52;194.73;;;73.78;;
57433;SDS011;43277;52.672;6.984;2023-02-12T07:19:19;187.00;;;72.93;;
57433;SDS011;43277;52.672;6.984;2023-02-12T07:21:45;198.10;;;73.40;;
57433;SDS011;43277;52.672;6.984;2023-02-12T07:24:11;182.60;;;69.45;;
57433;SDS011;43277;52.672;6.984;2023-02-12T07:26:37;152.70;;;64.35;;
57433;SDS011;43277;52.672;6.984;2023-02-12T07:29:04;160.52;;;67.50;;
57433;SDS011;43277;52.672;6.984;2023-02-12T07:31:29;153.40;;;64.85;;
57433;SDS011;43277;52.672;6.984;2023-02-12T07:33:56;111.55;;;54.10;;
57433;SDS011;43277;52.672;6.984;2023-02-12T07:36:23;126.00;;;58.03;;
57433;SDS011;43277;52.672;6.984;2023-02-12T07:38:50;129.63;;;57.38;;
57433;SDS011;43277;52.672;6.984;2023-02-12T07:41:20;126.50;;;58.10;;
57433;SDS011;43277;52.672;6.984;2023-02-12T07:43:48;128.75;;;58.67;;
57433;SDS011;43277;52.672;6.984;2023-02-12T07:46:19;119.35;;;57.45;;
57433;SDS011;43277;52.672;6.984;2023-02-12T07:48:53;115.75;;;53.95;;
57433;SDS011;43277;52.672;6.984;2023-02-12T07:51:20;135.95;;;58.95;;
57433;SDS011;43277;52.672;6.984;2023-02-12T07:53:46;121.05;;;57.22;;
57433;SDS011;43277;52.672;6.984;2023-02-12T07:56:13;109.85;;;55.05;;
57433;SDS011;43277;52.672;6.984;2023-02-12T07:58:40;104.13;;;52.40;;
57433;SDS011;43277;52.672;6.984;2023-02-12T08:01:11;120.70;;;56.78;;
57433;SDS011;43277;52.672;6.984;2023-02-12T08:04:08;106.90;;;52.75;;
57433;SDS011;43277;52.672;6.984;2023-02-12T08:06:36;100.40;;;50.38;;
57433;SDS011;43277;52.672;6.984;2023-02-12T08:09:04;104.90;;;53.25;;
57433;SDS011;43277;52.672;6.984;2023-02-12T08:11:34;109.83;;;55.20;;
57433;SDS011;43277;52.672;6.984;2023-02-12T08:14:00;108.53;;;55.58;;
57433;SDS011;43277;52.672;6.984;2023-02-12T08:16:27;95.53;;;50.67;;
57433;SDS011;43277;52.672;6.984;2023-02-12T08:18:54;99.65;;;51.78;;
57433;SDS011;43277;52.672;6.984;2023-02-12T08:21:21;96.88;;;50.97;;
57433;SDS011;43277;52.672;6.984;2023-02-12T08:23:55;91.80;;;51.30;;
57433;SDS011;43277;52.672;6.984;2023-02-12T08:26:23;85.07;;;47.13;;
57433;SDS011;43277;52.672;6.984;2023-02-12T08:28:54;85.10;;;47.60;;
57433;SDS011;43277;52.672;6.984;2023-02-12T08:31:23;84.18;;;48.53;;
57433;SDS011;43277;52.672;6.984;2023-02-12T08:33:51;81.88;;;47.40;;
57433;SDS011;43277;52.672;6.984;2023-02-12T08:36:19;82.57;;;48.00;;
57433;SDS011;43277;52.672;6.984;2023-02-12T08:38:58;79.30;;;46.47;;
57433;SDS011;43277;52.672;6.984;2023-02-12T08:41:25;72.22;;;45.60;;
57433;SDS011;43277;52.672;6.984;2023-02-12T08:43:54;68.75;;;42.65;;
57433;SDS011;43277;52.672;6.984;2023-02-12T08:46:26;65.70;;;41.53;;
57433;SDS011;43277;52.672;6.984;2023-02-12T08:48:57;68.13;;;42.95;;
57433;SDS011;43277;52.672;6.984;2023-02-12T08:51:29;67.00;;;42.60;;
57433;SDS011;43277;52.672;6.984;2023-02-12T08:54:00;70.13;;;43.72;;
57433;SDS011;43277;52.672;6.984;2023-02-12T08:56:28;68.57;;;44.15;;
57433;SDS011;43277;52.672;6.984;2023-02-12T08:58:55;76.68;;;45.90;;
57433;SDS011;43277;52.672;6.984;2023-02-12T09:01:23;75.82;;;44.38;;
57433;SDS011;43277;52.672;6.984;2023-02-12T09:03:50;77.82;;;46.28;;
57433;SDS011;43277;52.672;6.984;2023-02-12T09:06:17;79.55;;;45.58;;
57433;SDS011;43277;52.672;6.984;2023-02-12T09:08:44;76.93;;;45.13;;
57433;SDS011;43277;52.672;6.984;2023-02-12T09:11:13;67.78;;;43.55;;
57433;SDS011;43277;52.672;6.984;2023-02-12T09:13:41;72.73;;;45.03;;
57433;SDS011;43277;52.672;6.984;2023-02-12T09:16:08;73.07;;;46.53;;
57433;SDS011;43277;52.672;6.984;2023-02-12T09:18:34;66.72;;;43.05;;
57433;SDS011;43277;52.672;6.984;2023-02-12T09:21:01;75.03;;;44.22;;
57433;SDS011;43277;52.672;6.984;2023-02-12T09:23:38;66.43;;;42.05;;
57433;SDS011;43277;52.672;6.984;2023-02-12T09:26:09;70.90;;;46.25;;
57433;SDS011;43277;52.672;6.984;2023-02-12T09:28:36;70.55;;;44.75;;
57433;SDS011;43277;52.672;6.984;2023-02-12T09:31:09;70.30;;;44.55;;
57433;SDS011;43277;52.672;6.984;2023-02-12T09:33:36;63.92;;;42.13;;
57433;SDS011;43277;52.672;6.984;2023-02-12T09:36:03;61.47;;;42.72;;
57433;SDS011;43277;52.672;6.984;2023-02-12T09:38:31;63.92;;;41.70;;
57433;SDS011;43277;52.672;6.984;2023-02-12T09:41:43;61.95;;;41.63;;
57433;SDS011;43277;52.672;6.984;2023-02-12T09:44:01;59.35;;;38.92;;
57433;SDS011;43277;52.672;6.984;2023-02-12T09:46:49;51.42;;;35.33;;
57433;SDS011;43277;52.672;6.984;2023-02-12T09:51:58;54.05;;;36.53;;
57433;SDS011;43277;52.672;6.984;2023-02-12T09:54:27;50.78;;;35.00;;
57433;SDS011;43277;52.672;6.984;2023-02-12T09:56:58;49.45;;;34.60;;
57433;SDS011;43277;52.672;6.984;2023-02-12T09:59:39;46.72;;;33.30;;
57433;SDS011;43277;52.672;6.984;2023-02-12T10:02:15;46.85;;;32.65;;
57433;SDS011;43277;52.672;6.984;2023-02-12T10:04:43;44.63;;;30.85;;
57433;SDS011;43277;52.672;6.984;2023-02-12T10:07:17;40.83;;;31.10;;
57433;SDS011;43277;52.672;6.984;2023-02-12T10:10:02;42.70;;;31.33;;
57433;SDS011;43277;52.672;6.984;2023-02-12T10:18:02;33.25;;;26.38;;
57433;SDS011;43277;52.672;6.984;2023-02-12T10:26:05;32.92;;;25.38;;
57433;SDS011;43277;52.672;6.984;2023-02-12T10:28:42;31.63;;;22.42;;
57433;SDS011;43277;52.672;6.984;2023-02-12T10:31:24;32.22;;;22.20;;
57433;SDS011;43277;52.672;6.984;2023-02-12T10:33:54;27.10;;;21.25;;
57433;SDS011;43277;52.672;6.984;2023-02-12T10:41:38;32.05;;;23.70;;
57433;SDS011;43277;52.672;6.984;2023-02-12T10:44:10;30.48;;;22.23;;
57433;SDS011;43277;52.672;6.984;2023-02-12T10:46:36;28.73;;;20.83;;
57433;SDS011;43277;52.672;6.984;2023-02-12T10:49:03;26.63;;;19.90;;
57433;SDS011;43277;52.672;6.984;2023-02-12T10:51:47;22.17;;;17.27;;
57433;SDS011;43277;52.672;6.984;2023-02-12T10:56:59;24.90;;;18.73;;
57433;SDS011;43277;52.672;6.984;2023-02-12T10:59:42;25.17;;;18.75;;
57433;SDS011;43277;52.672;6.984;2023-02-12T11:02:20;25.02;;;19.15;;
57433;SDS011;43277;52.672;6.984;2023-02-12T11:04:54;27.08;;;20.08;;
57433;SDS011;43277;52.672;6.984;2023-02-12T11:07:22;27.45;;;19.17;;
57433;SDS011;43277;52.672;6.984;2023-02-12T11:09:48;23.27;;;17.55;;
57433;SDS011;43277;52.672;6.984;2023-02-12T11:14:50;23.08;;;16.95;;
57433;SDS011;43277;52.672;6.984;2023-02-12T11:17:25;21.92;;;16.98;;
57433;SDS011;43277;52.672;6.984;2023-02-12T11:25:22;23.98;;;17.67;;
57433;SDS011;43277;52.672;6.984;2023-02-12T11:27:59;24.35;;;17.77;;
57433;SDS011;43277;52.672;6.984;2023-02-12T11:30:47;19.85;;;14.30;;
57433;SDS011;43277;52.672;6.984;2023-02-12T11:35:53;18.95;;;14.30;;
57433;SDS011;43277;52.672;6.984;2023-02-12T11:38:24;19.63;;;13.93;;
57433;SDS011;43277;52.672;6.984;2023-02-12T11:40:54;19.95;;;14.68;;
57433;SDS011;43277;52.672;6.984;2023-02-12T11:43:22;19.00;;;14.55;;
57433;SDS011;43277;52.672;6.984;2023-02-12T11:45:49;20.00;;;15.10;;
57433;SDS011;43277;52.672;6.984;2023-02-12T11:50:55;20.45;;;15.38;;
57433;SDS011;43277;52.672;6.984;2023-02-12T11:53:26;20.25;;;16.15;;
57433;SDS011;43277;52.672;6.984;2023-02-12T11:55:59;21.85;;;17.55;;
57433;SDS011;43277;52.672;6.984;2023-02-12T11:58:27;23.15;;;18.20;;
57433;SDS011;43277;52.672;6.984;2023-02-12T12:09:16;23.92;;;17.40;;
57433;SDS011;43277;52.672;6.984;2023-02-12T12:12:09;25.83;;;17.48;;
57433;SDS011;43277;52.672;6.984;2023-02-12T12:14:45;21.83;;;16.52;;
57433;SDS011;43277;52.672;6.984;2023-02-12T12:17:34;22.55;;;16.30;;
57433;SDS011;43277;52.672;6.984;2023-02-12T12:20:37;22.20;;;16.15;;
57433;SDS011;43277;52.672;6.984;2023-02-12T12:23:31;24.85;;;16.95;;
57433;SDS011;43277;52.672;6.984;2023-02-12T12:26:03;21.98;;;16.95;;
57433;SDS011;43277;52.672;6.984;2023-02-12T12:28:50;23.58;;;17.70;;
57433;SDS011;43277;52.672;6.984;2023-02-12T12:31:27;25.30;;;18.58;;
57433;SDS011;43277;52.672;6.984;2023-02-12T12:34:07;25.33;;;18.60;;
57433;SDS011;43277;52.672;6.984;2023-02-12T12:39:41;24.02;;;18.27;;
57433;SDS011;43277;52.672;6.984;2023-02-12T12:45:16;26.02;;;18.77;;
57433;SDS011;43277;52.672;6.984;2023-02-12T12:59:33;23.10;;;17.83;;
57433;SDS011;43277;52.672;6.984;2023-02-12T13:10:33;25.83;;;18.08;;
57433;SDS011;43277;52.672;6.984;2023-02-12T13:13:08;24.17;;;17.67;;
57433;SDS011;43277;52.672;6.984;2023-02-12T13:16:00;26.10;;;18.27;;
57433;SDS011;43277;52.672;6.984;2023-02-12T13:18:57;24.02;;;17.45;;
57433;SDS011;43277;52.672;6.984;2023-02-12T13:27:16;21.02;;;16.85;;
57433;SDS011;43277;52.672;6.984;2023-02-12T13:29:47;25.48;;;18.40;;
57433;SDS011;43277;52.672;6.984;2023-02-12T13:32:23;22.73;;;17.48;;
57433;SDS011;43277;52.672;6.984;2023-02-12T13:34:52;23.33;;;16.92;;
57433;SDS011;43277;52.672;6.984;2023-02-12T13:37:26;23.35;;;18.63;;
57433;SDS011;43277;52.672;6.984;2023-02-12T13:40:02;27.02;;;19.08;;
57433;SDS011;43277;52.672;6.984;2023-02-12T13:48:16;24.17;;;17.88;;
57433;SDS011;43277;52.672;6.984;2023-02-12T13:51:06;24.00;;;16.88;;
57433;SDS011;43277;52.672;6.984;2023-02-12T13:56:40;24.35;;;16.83;;
57433;SDS011;43277;52.672;6.984;2023-02-12T14:01:56;23.88;;;18.40;;
57433;SDS011;43277;52.672;6.984;2023-02-12T14:04:44;24.85;;;18.73;;
57433;SDS011;43277;52.672;6.984;2023-02-12T14:07:14;24.25;;;18.38;;
57433;SDS011;43277;52.672;6.984;2023-02-12T14:09:42;23.17;;;16.63;;
57433;SDS011;43277;52.672;6.984;2023-02-12T14:14:49;19.35;;;14.63;;
57433;SDS011;43277;52.672;6.984;2023-02-12T14:27:52;25.77;;;17.23;;
57433;SDS011;43277;52.672;6.984;2023-02-12T14:30:35;22.35;;;17.13;;
57433;SDS011;43277;52.672;6.984;2023-02-12T14:38:02;27.83;;;21.95;;
57433;SDS011;43277;52.672;6.984;2023-02-12T14:48:52;22.27;;;17.38;;
57433;SDS011;43277;52.672;6.984;2023-02-12T14:54:01;22.65;;;17.70;;
57433;SDS011;43277;52.672;6.984;2023-02-12T14:56:28;24.98;;;18.90;;
57433;SDS011;43277;52.672;6.984;2023-02-12T14:59:03;23.83;;;17.75;;
57433;SDS011;43277;52.672;6.984;2023-02-12T15:01:32;25.00;;;18.35;;
57433;SDS011;43277;52.672;6.984;2023-02-12T15:04:01;27.17;;;19.50;;
57433;SDS011;43277;52.672;6.984;2023-02-12T15:06:47;23.55;;;17.83;;
57433;SDS011;43277;52.672;6.984;2023-02-12T15:09:34;25.83;;;18.23;;
57433;SDS011;43277;52.672;6.984;2023-02-12T15:12:14;24.42;;;18.80;;
57433;SDS011;43277;52.672;6.984;2023-02-12T15:14:46;25.42;;;19.25;;
57433;SDS011;43277;52.672;6.984;2023-02-12T15:17:18;25.75;;;19.23;;
57433;SDS011;43277;52.672;6.984;2023-02-12T15:22:26;21.92;;;16.45;;
57433;SDS011;43277;52.672;6.984;2023-02-12T15:27:51;22.52;;;17.75;;
57433;SDS011;43277;52.672;6.984;2023-02-12T15:30:21;23.92;;;18.08;;
57433;SDS011;43277;52.672;6.984;2023-02-12T15:32:50;22.50;;;16.27;;
57433;SDS011;43277;52.672;6.984;2023-02-12T15:35:24;23.23;;;16.08;;
57433;SDS011;43277;52.672;6.984;2023-02-12T15:37:55;22.33;;;15.52;;
57433;SDS011;43277;52.672;6.984;2023-02-12T15:40:24;19.65;;;13.63;;
57433;SDS011;43277;52.672;6.984;2023-02-12T15:48:28;17.33;;;11.55;;
57433;SDS011;43277;52.672;6.984;2023-02-12T15:51:00;15.52;;;10.98;;
57433;SDS011;43277;52.672;6.984;2023-02-12T15:53:30;16.42;;;10.30;;
57433;SDS011;43277;52.672;6.984;2023-02-12T15:55:57;16.25;;;10.85;;
57433;SDS011;43277;52.672;6.984;2023-02-12T15:58:26;19.27;;;11.85;;
57433;SDS011;43277;52.672;6.984;2023-02-12T16:00:54;15.35;;;10.82;;
57433;SDS011;43277;52.672;6.984;2023-02-12T16:03:26;16.23;;;10.90;;
57433;SDS011;43277;52.672;6.984;2023-02-12T16:06:00;17.92;;;12.20;;
57433;SDS011;43277;52.672;6.984;2023-02-12T16:08:35;17.08;;;12.27;;
57433;SDS011;43277;52.672;6.984;2023-02-12T16:11:02;19.70;;;13.30;;
57433;SDS011;43277;52.672;6.984;2023-02-12T16:13:38;19.60;;;14.25;;
57433;SDS011;43277;52.672;6.984;2023-02-12T16:18:41;24.23;;;16.23;;
57433;SDS011;43277;52.672;6.984;2023-02-12T16:23:47;19.05;;;15.00;;
57433;SDS011;43277;52.672;6.984;2023-02-12T16:26:15;23.52;;;16.58;;
57433;SDS011;43277;52.672;6.984;2023-02-12T16:28:45;27.65;;;16.33;;
57433;SDS011;43277;52.672;6.984;2023-02-12T16:31:13;19.02;;;13.95;;
57433;SDS011;43277;52.672;6.984;2023-02-12T16:36:10;16.65;;;12.13;;
57433;SDS011;43277;52.672;6.984;2023-02-12T16:38:54;18.20;;;13.00;;
57433;SDS011;43277;52.672;6.984;2023-02-12T16:41:29;17.30;;;12.10;;
57433;SDS011;43277;52.672;6.984;2023-02-12T16:46:24;17.40;;;12.68;;
57433;SDS011;43277;52.672;6.984;2023-02-12T16:53:55;18.33;;;12.98;;
57433;SDS011;43277;52.672;6.984;2023-02-12T16:56:23;16.88;;;12.73;;
57433;SDS011;43277;52.672;6.984;2023-02-12T16:58:52;15.13;;;11.00;;
57433;SDS011;43277;52.672;6.984;2023-02-12T17:01:23;17.98;;;11.95;;
57433;SDS011;43277;52.672;6.984;2023-02-12T17:03:55;17.55;;;13.00;;
57433;SDS011;43277;52.672;6.984;2023-02-12T17:06:26;17.13;;;12.88;;
57433;SDS011;43277;52.672;6.984;2023-02-12T17:08:53;17.10;;;13.35;;
57433;SDS011;43277;52.672;6.984;2023-02-12T17:11:20;17.77;;;12.48;;
57433;SDS011;43277;52.672;6.984;2023-02-12T17:13:47;18.27;;;13.07;;
57433;SDS011;43277;52.672;6.984;2023-02-12T17:16:14;17.75;;;13.13;;
57433;SDS011;43277;52.672;6.984;2023-02-12T17:18:41;18.05;;;12.82;;
57433;SDS011;43277;52.672;6.984;2023-02-12T17:21:08;17.17;;;12.52;;
57433;SDS011;43277;52.672;6.984;2023-02-12T17:23:48;15.82;;;11.40;;
57433;SDS011;43277;52.672;6.984;2023-02-12T17:26:14;18.90;;;12.27;;
57433;SDS011;43277;52.672;6.984;2023-02-12T17:28:39;17.55;;;11.40;;
57433;SDS011;43277;52.672;6.984;2023-02-12T17:31:06;17.95;;;12.23;;
57433;SDS011;43277;52.672;6.984;2023-02-12T17:33:32;16.58;;;11.27;;
57433;SDS011;43277;52.672;6.984;2023-02-12T17:35:58;15.65;;;11.55;;
57433;SDS011;43277;52.672;6.984;2023-02-12T17:38:24;16.55;;;11.77;;
57433;SDS011;43277;52.672;6.984;2023-02-12T17:40:49;18.67;;;12.48;;
57433;SDS011;43277;52.672;6.984;2023-02-12T17:43:15;18.00;;;12.50;;